sensor_id;sensor_type;location;lat;lon;timestamp;P1;durP1;ratioP1;P2;durP2;ratioP2
11777;SDS011;5946;51.770;8.548;2023-04-09T00:00:37;86.97;;;42.67;;
11777;SDS011;5946;51.770;8.548;2023-04-09T00:03:03;84.00;;;40.63;;
11777;SDS011;5946;51.770;8.548;2023-04-09T00:05:29;99.87;;;46.50;;
11777;SDS011;5946;51.770;8.548;2023-04-09T00:07:55;93.13;;;48.07;;
11777;SDS011;5946;51.770;8.548;2023-04-09T00:10:21;94.10;;;45.43;;
11777;SDS011;5946;51.770;8.548;2023-04-09T00:12:47;85.70;;;42.97;;
11777;SDS011;5946;51.770;8.548;2023-04-09T00:15:13;85.13;;;42.43;;
11777;SDS011;5946;51.770;8.548;2023-04-09T00:17:39;88.13;;;45.57;;
11777;SDS011;5946;51.770;8.548;2023-04-09T00:20:05;83.50;;;43.20;;
11777;SDS011;5946;51.770;8.548;2023-04-09T00:22:31;87.03;;;43.17;;
11777;SDS011;5946;51.770;8.548;2023-04-09T00:24:57;91.50;;;43.93;;
11777;SDS011;5946;51.770;8.548;2023-04-09T00:27:23;90.70;;;42.60;;
11777;SDS011;5946;51.770;8.548;2023-04-09T00:29:52;81.87;;;41.40;;
11777;SDS011;5946;51.770;8.548;2023-04-09T00:32:17;75.20;;;39.03;;
11777;SDS011;5946;51.770;8.548;2023-04-09T00:34:43;71.77;;;37.17;;
11777;SDS011;5946;51.770;8.548;2023-04-09T00:37:09;68.73;;;35.87;;
11777;SDS011;5946;51.770;8.548;2023-04-09T00:39:35;68.47;;;36.00;;
11777;SDS011;5946;51.770;8.548;2023-04-09T00:42:01;71.53;;;37.73;;
11777;SDS011;5946;51.770;8.548;2023-04-09T00:44:27;69.93;;;36.57;;
11777;SDS011;5946;51.770;8.548;2023-04-09T00:46:53;81.47;;;40.33;;
11777;SDS011;5946;51.770;8.548;2023-04-09T00:49:20;75.87;;;38.03;;
11777;SDS011;5946;51.770;8.548;2023-04-09T00:51:47;92.27;;;43.67;;
11777;SDS011;5946;51.770;8.548;2023-04-09T00:54:13;85.53;;;44.00;;
11777;SDS011;5946;51.770;8.548;2023-04-09T00:56:40;79.50;;;41.43;;
11777;SDS011;5946;51.770;8.548;2023-04-09T00:59:07;82.70;;;42.70;;
11777;SDS011;5946;51.770;8.548;2023-04-09T01:01:33;75.77;;;38.57;;
11777;SDS011;5946;51.770;8.548;2023-04-09T01:03:58;78.37;;;38.97;;
11777;SDS011;5946;51.770;8.548;2023-04-09T01:12:33;67.20;;;34.73;;
11777;SDS011;5946;51.770;8.548;2023-04-09T01:15:04;73.20;;;36.67;;
11777;SDS011;5946;51.770;8.548;2023-04-09T01:17:37;70.73;;;37.33;;
11777;SDS011;5946;51.770;8.548;2023-04-09T01:20:06;75.13;;;36.23;;
11777;SDS011;5946;51.770;8.548;2023-04-09T01:25:13;66.37;;;34.73;;
11777;SDS011;5946;51.770;8.548;2023-04-09T01:27:53;66.63;;;35.40;;
11777;SDS011;5946;51.770;8.548;2023-04-09T01:30:22;72.90;;;36.10;;
11777;SDS011;5946;51.770;8.548;2023-04-09T01:32:49;71.97;;;35.47;;
11777;SDS011;5946;51.770;8.548;2023-04-09T01:35:15;70.97;;;36.10;;
11777;SDS011;5946;51.770;8.548;2023-04-09T01:37:42;68.20;;;35.20;;
11777;SDS011;5946;51.770;8.548;2023-04-09T01:40:08;69.97;;;34.80;;
11777;SDS011;5946;51.770;8.548;2023-04-09T01:42:35;71.23;;;35.37;;
11777;SDS011;5946;51.770;8.548;2023-04-09T01:45:01;73.33;;;36.40;;
11777;SDS011;5946;51.770;8.548;2023-04-09T01:47:28;72.80;;;36.47;;
11777;SDS011;5946;51.770;8.548;2023-04-09T01:49:55;70.27;;;35.17;;
11777;SDS011;5946;51.770;8.548;2023-04-09T01:52:21;71.57;;;36.57;;
11777;SDS011;5946;51.770;8.548;2023-04-09T01:54:47;77.43;;;36.10;;
11777;SDS011;5946;51.770;8.548;2023-04-09T01:57:13;81.40;;;37.87;;
11777;SDS011;5946;51.770;8.548;2023-04-09T01:59:39;76.97;;;36.27;;
11777;SDS011;5946;51.770;8.548;2023-04-09T02:02:07;72.03;;;35.87;;
11777;SDS011;5946;51.770;8.548;2023-04-09T02:04:39;71.03;;;34.87;;
11777;SDS011;5946;51.770;8.548;2023-04-09T02:09:33;80.60;;;37.57;;
11777;SDS011;5946;51.770;8.548;2023-04-09T02:12:02;73.87;;;36.27;;
11777;SDS011;5946;51.770;8.548;2023-04-09T02:14:29;72.40;;;37.00;;
11777;SDS011;5946;51.770;8.548;2023-04-09T02:16:56;81.33;;;38.80;;
11777;SDS011;5946;51.770;8.548;2023-04-09T02:19:22;81.87;;;37.70;;
11777;SDS011;5946;51.770;8.548;2023-04-09T02:21:48;79.27;;;37.83;;
11777;SDS011;5946;51.770;8.548;2023-04-09T02:24:14;75.33;;;38.53;;
11777;SDS011;5946;51.770;8.548;2023-04-09T02:26:40;76.13;;;36.80;;
11777;SDS011;5946;51.770;8.548;2023-04-09T02:29:06;77.87;;;36.10;;
11777;SDS011;5946;51.770;8.548;2023-04-09T02:31:31;81.10;;;37.70;;
11777;SDS011;5946;51.770;8.548;2023-04-09T02:33:57;86.23;;;37.80;;
11777;SDS011;5946;51.770;8.548;2023-04-09T02:36:24;76.73;;;36.97;;
11777;SDS011;5946;51.770;8.548;2023-04-09T02:38:51;74.50;;;36.13;;
11777;SDS011;5946;51.770;8.548;2023-04-09T02:41:17;77.93;;;37.17;;
11777;SDS011;5946;51.770;8.548;2023-04-09T02:43:43;75.30;;;35.37;;
11777;SDS011;5946;51.770;8.548;2023-04-09T02:46:09;68.23;;;35.13;;
11777;SDS011;5946;51.770;8.548;2023-04-09T02:48:35;70.63;;;34.37;;
11777;SDS011;5946;51.770;8.548;2023-04-09T02:51:03;91.47;;;41.23;;
11777;SDS011;5946;51.770;8.548;2023-04-09T02:53:29;82.53;;;37.73;;
11777;SDS011;5946;51.770;8.548;2023-04-09T02:55:55;76.20;;;38.27;;
11777;SDS011;5946;51.770;8.548;2023-04-09T02:58:21;89.97;;;42.00;;
11777;SDS011;5946;51.770;8.548;2023-04-09T03:00:47;85.80;;;38.37;;
11777;SDS011;5946;51.770;8.548;2023-04-09T03:03:13;88.20;;;40.47;;
11777;SDS011;5946;51.770;8.548;2023-04-09T03:05:39;92.30;;;42.10;;
11777;SDS011;5946;51.770;8.548;2023-04-09T03:08:05;79.23;;;38.27;;
11777;SDS011;5946;51.770;8.548;2023-04-09T03:10:31;83.90;;;38.60;;
11777;SDS011;5946;51.770;8.548;2023-04-09T03:12:57;85.77;;;40.77;;
11777;SDS011;5946;51.770;8.548;2023-04-09T03:15:23;81.97;;;39.97;;
11777;SDS011;5946;51.770;8.548;2023-04-09T03:17:49;83.97;;;38.63;;
11777;SDS011;5946;51.770;8.548;2023-04-09T03:20:15;86.73;;;41.27;;
11777;SDS011;5946;51.770;8.548;2023-04-09T03:22:41;81.10;;;38.20;;
11777;SDS011;5946;51.770;8.548;2023-04-09T03:25:07;80.90;;;37.90;;
11777;SDS011;5946;51.770;8.548;2023-04-09T03:27:33;85.10;;;40.43;;
11777;SDS011;5946;51.770;8.548;2023-04-09T03:29:59;82.87;;;38.73;;
11777;SDS011;5946;51.770;8.548;2023-04-09T03:32:25;89.90;;;41.63;;
11777;SDS011;5946;51.770;8.548;2023-04-09T03:34:51;88.77;;;40.87;;
11777;SDS011;5946;51.770;8.548;2023-04-09T03:37:17;87.63;;;40.73;;
11777;SDS011;5946;51.770;8.548;2023-04-09T03:39:43;87.03;;;44.33;;
11777;SDS011;5946;51.770;8.548;2023-04-09T03:42:09;95.97;;;44.17;;
11777;SDS011;5946;51.770;8.548;2023-04-09T03:44:35;98.67;;;43.40;;
11777;SDS011;5946;51.770;8.548;2023-04-09T03:47:01;95.83;;;43.40;;
11777;SDS011;5946;51.770;8.548;2023-04-09T03:49:27;94.90;;;43.33;;
11777;SDS011;5946;51.770;8.548;2023-04-09T03:51:53;92.43;;;42.93;;
11777;SDS011;5946;51.770;8.548;2023-04-09T03:54:19;92.13;;;43.03;;
11777;SDS011;5946;51.770;8.548;2023-04-09T03:56:45;98.03;;;43.90;;
11777;SDS011;5946;51.770;8.548;2023-04-09T03:59:11;91.27;;;42.53;;
11777;SDS011;5946;51.770;8.548;2023-04-09T04:01:37;97.83;;;43.80;;
11777;SDS011;5946;51.770;8.548;2023-04-09T04:04:03;93.37;;;42.50;;
11777;SDS011;5946;51.770;8.548;2023-04-09T04:06:31;87.53;;;42.77;;
11777;SDS011;5946;51.770;8.548;2023-04-09T04:08:57;97.33;;;44.97;;
11777;SDS011;5946;51.770;8.548;2023-04-09T04:11:23;100.27;;;45.00;;
11777;SDS011;5946;51.770;8.548;2023-04-09T04:13:49;96.73;;;44.13;;
11777;SDS011;5946;51.770;8.548;2023-04-09T04:16:15;97.07;;;45.90;;
11777;SDS011;5946;51.770;8.548;2023-04-09T04:18:41;98.70;;;46.33;;
11777;SDS011;5946;51.770;8.548;2023-04-09T04:21:11;109.20;;;48.17;;
11777;SDS011;5946;51.770;8.548;2023-04-09T04:23:37;107.90;;;46.70;;
11777;SDS011;5946;51.770;8.548;2023-04-09T04:26:06;100.43;;;47.60;;
11777;SDS011;5946;51.770;8.548;2023-04-09T04:28:33;104.13;;;48.40;;
11777;SDS011;5946;51.770;8.548;2023-04-09T04:31:00;96.83;;;46.30;;
11777;SDS011;5946;51.770;8.548;2023-04-09T04:33:26;101.30;;;45.67;;
11777;SDS011;5946;51.770;8.548;2023-04-09T04:35:52;89.50;;;43.53;;
11777;SDS011;5946;51.770;8.548;2023-04-09T04:38:18;90.20;;;43.23;;
11777;SDS011;5946;51.770;8.548;2023-04-09T04:40:44;88.07;;;43.67;;
11777;SDS011;5946;51.770;8.548;2023-04-09T04:43:10;85.43;;;41.23;;
11777;SDS011;5946;51.770;8.548;2023-04-09T04:45:36;92.07;;;41.77;;
11777;SDS011;5946;51.770;8.548;2023-04-09T04:48:01;90.67;;;43.00;;
11777;SDS011;5946;51.770;8.548;2023-04-09T04:50:27;89.27;;;43.33;;
11777;SDS011;5946;51.770;8.548;2023-04-09T04:52:53;85.70;;;41.03;;
11777;SDS011;5946;51.770;8.548;2023-04-09T04:55:19;88.83;;;41.17;;
11777;SDS011;5946;51.770;8.548;2023-04-09T04:57:45;90.60;;;42.20;;
11777;SDS011;5946;51.770;8.548;2023-04-09T05:00:11;86.63;;;43.10;;
11777;SDS011;5946;51.770;8.548;2023-04-09T05:02:37;87.87;;;41.93;;
11777;SDS011;5946;51.770;8.548;2023-04-09T05:05:03;97.87;;;46.20;;
11777;SDS011;5946;51.770;8.548;2023-04-09T05:07:29;101.03;;;45.20;;
11777;SDS011;5946;51.770;8.548;2023-04-09T05:09:55;90.47;;;44.50;;
11777;SDS011;5946;51.770;8.548;2023-04-09T05:12:21;102.83;;;47.17;;
11777;SDS011;5946;51.770;8.548;2023-04-09T05:14:47;107.77;;;48.57;;
11777;SDS011;5946;51.770;8.548;2023-04-09T05:17:13;98.50;;;47.47;;
11777;SDS011;5946;51.770;8.548;2023-04-09T05:19:39;97.03;;;47.80;;
11777;SDS011;5946;51.770;8.548;2023-04-09T05:22:05;89.83;;;44.57;;
11777;SDS011;5946;51.770;8.548;2023-04-09T05:24:31;99.60;;;47.40;;
11777;SDS011;5946;51.770;8.548;2023-04-09T05:26:57;96.30;;;46.93;;
11777;SDS011;5946;51.770;8.548;2023-04-09T05:29:23;101.57;;;48.70;;
11777;SDS011;5946;51.770;8.548;2023-04-09T05:31:49;107.37;;;50.37;;
11777;SDS011;5946;51.770;8.548;2023-04-09T05:34:15;106.60;;;49.43;;
11777;SDS011;5946;51.770;8.548;2023-04-09T05:36:41;101.77;;;49.83;;
11777;SDS011;5946;51.770;8.548;2023-04-09T05:39:07;106.53;;;51.37;;
11777;SDS011;5946;51.770;8.548;2023-04-09T05:41:33;107.53;;;50.60;;
11777;SDS011;5946;51.770;8.548;2023-04-09T05:44:01;99.50;;;48.97;;
11777;SDS011;5946;51.770;8.548;2023-04-09T05:46:27;108.83;;;50.23;;
11777;SDS011;5946;51.770;8.548;2023-04-09T05:48:53;106.70;;;50.20;;
11777;SDS011;5946;51.770;8.548;2023-04-09T05:51:19;104.17;;;49.90;;
11777;SDS011;5946;51.770;8.548;2023-04-09T05:53:45;98.47;;;49.27;;
11777;SDS011;5946;51.770;8.548;2023-04-09T05:56:11;104.30;;;51.47;;
11777;SDS011;5946;51.770;8.548;2023-04-09T05:58:38;105.67;;;50.20;;
11777;SDS011;5946;51.770;8.548;2023-04-09T06:01:04;101.00;;;49.87;;
11777;SDS011;5946;51.770;8.548;2023-04-09T06:03:30;99.27;;;49.17;;
11777;SDS011;5946;51.770;8.548;2023-04-09T06:05:56;110.17;;;52.30;;
11777;SDS011;5946;51.770;8.548;2023-04-09T06:08:22;108.00;;;52.43;;
11777;SDS011;5946;51.770;8.548;2023-04-09T06:10:47;110.50;;;53.50;;
11777;SDS011;5946;51.770;8.548;2023-04-09T06:13:13;106.03;;;51.33;;
11777;SDS011;5946;51.770;8.548;2023-04-09T06:15:39;105.33;;;52.47;;
11777;SDS011;5946;51.770;8.548;2023-04-09T06:18:05;109.33;;;51.90;;
11777;SDS011;5946;51.770;8.548;2023-04-09T06:20:31;104.27;;;51.77;;
11777;SDS011;5946;51.770;8.548;2023-04-09T06:22:57;100.37;;;50.70;;
11777;SDS011;5946;51.770;8.548;2023-04-09T06:25:23;98.03;;;48.50;;
11777;SDS011;5946;51.770;8.548;2023-04-09T06:27:49;97.63;;;50.93;;
11777;SDS011;5946;51.770;8.548;2023-04-09T06:30:15;97.33;;;49.20;;
11777;SDS011;5946;51.770;8.548;2023-04-09T06:32:41;97.87;;;50.33;;
11777;SDS011;5946;51.770;8.548;2023-04-09T06:35:09;91.40;;;48.30;;
11777;SDS011;5946;51.770;8.548;2023-04-09T06:37:35;90.87;;;47.50;;
11777;SDS011;5946;51.770;8.548;2023-04-09T06:40:01;90.47;;;47.50;;
11777;SDS011;5946;51.770;8.548;2023-04-09T06:42:27;95.77;;;51.67;;
11777;SDS011;5946;51.770;8.548;2023-04-09T06:44:53;86.53;;;48.40;;
11777;SDS011;5946;51.770;8.548;2023-04-09T06:47:19;88.07;;;47.73;;
11777;SDS011;5946;51.770;8.548;2023-04-09T06:49:45;84.17;;;46.63;;
11777;SDS011;5946;51.770;8.548;2023-04-09T06:52:11;87.17;;;46.63;;
11777;SDS011;5946;51.770;8.548;2023-04-09T06:54:37;79.47;;;45.13;;
11777;SDS011;5946;51.770;8.548;2023-04-09T06:57:02;81.43;;;47.50;;
11777;SDS011;5946;51.770;8.548;2023-04-09T06:59:28;80.50;;;44.60;;
11777;SDS011;5946;51.770;8.548;2023-04-09T07:01:54;73.20;;;43.47;;
11777;SDS011;5946;51.770;8.548;2023-04-09T07:04:20;80.57;;;44.77;;
11777;SDS011;5946;51.770;8.548;2023-04-09T07:06:46;74.93;;;43.00;;
11777;SDS011;5946;51.770;8.548;2023-04-09T07:09:12;71.80;;;42.50;;
11777;SDS011;5946;51.770;8.548;2023-04-09T07:11:38;70.67;;;41.30;;
11777;SDS011;5946;51.770;8.548;2023-04-09T07:14:04;69.17;;;41.80;;
11777;SDS011;5946;51.770;8.548;2023-04-09T07:16:30;70.07;;;41.57;;
11777;SDS011;5946;51.770;8.548;2023-04-09T07:18:56;65.73;;;40.23;;
11777;SDS011;5946;51.770;8.548;2023-04-09T07:21:22;60.70;;;36.93;;
11777;SDS011;5946;51.770;8.548;2023-04-09T07:23:48;62.77;;;36.83;;
11777;SDS011;5946;51.770;8.548;2023-04-09T07:26:14;64.83;;;39.70;;
11777;SDS011;5946;51.770;8.548;2023-04-09T07:28:40;64.27;;;39.57;;
11777;SDS011;5946;51.770;8.548;2023-04-09T07:31:06;57.10;;;36.33;;
11777;SDS011;5946;51.770;8.548;2023-04-09T07:33:32;59.93;;;37.00;;
11777;SDS011;5946;51.770;8.548;2023-04-09T07:35:58;59.30;;;34.63;;
11777;SDS011;5946;51.770;8.548;2023-04-09T07:38:24;55.67;;;36.27;;
11777;SDS011;5946;51.770;8.548;2023-04-09T07:40:52;52.63;;;34.10;;
11777;SDS011;5946;51.770;8.548;2023-04-09T07:43:18;52.17;;;34.53;;
11777;SDS011;5946;51.770;8.548;2023-04-09T07:45:44;68.43;;;43.90;;
11777;SDS011;5946;51.770;8.548;2023-04-09T07:48:13;51.47;;;34.73;;
11777;SDS011;5946;51.770;8.548;2023-04-09T07:50:39;52.73;;;35.47;;
11777;SDS011;5946;51.770;8.548;2023-04-09T07:53:06;46.63;;;32.00;;
11777;SDS011;5946;51.770;8.548;2023-04-09T07:55:32;45.77;;;30.57;;
11777;SDS011;5946;51.770;8.548;2023-04-09T07:57:58;47.10;;;31.77;;
11777;SDS011;5946;51.770;8.548;2023-04-09T08:00:24;46.47;;;31.60;;
11777;SDS011;5946;51.770;8.548;2023-04-09T08:02:50;43.03;;;29.87;;
11777;SDS011;5946;51.770;8.548;2023-04-09T08:05:16;45.83;;;29.33;;
11777;SDS011;5946;51.770;8.548;2023-04-09T08:07:42;43.33;;;29.43;;
11777;SDS011;5946;51.770;8.548;2023-04-09T08:10:08;43.17;;;29.13;;
11777;SDS011;5946;51.770;8.548;2023-04-09T08:12:38;40.27;;;27.83;;
11777;SDS011;5946;51.770;8.548;2023-04-09T08:15:05;48.77;;;33.77;;
11777;SDS011;5946;51.770;8.548;2023-04-09T08:17:31;39.07;;;27.57;;
11777;SDS011;5946;51.770;8.548;2023-04-09T08:19:57;39.73;;;27.77;;
11777;SDS011;5946;51.770;8.548;2023-04-09T08:22:23;41.40;;;28.93;;
11777;SDS011;5946;51.770;8.548;2023-04-09T08:24:50;39.57;;;26.47;;
11777;SDS011;5946;51.770;8.548;2023-04-09T08:27:16;35.97;;;25.47;;
11777;SDS011;5946;51.770;8.548;2023-04-09T08:29:42;37.97;;;25.90;;
11777;SDS011;5946;51.770;8.548;2023-04-09T08:32:08;35.07;;;25.53;;
11777;SDS011;5946;51.770;8.548;2023-04-09T08:34:35;34.73;;;25.63;;
11777;SDS011;5946;51.770;8.548;2023-04-09T08:37:01;39.03;;;26.17;;
11777;SDS011;5946;51.770;8.548;2023-04-09T08:39:27;36.17;;;25.97;;
11777;SDS011;5946;51.770;8.548;2023-04-09T08:41:53;35.17;;;25.70;;
11777;SDS011;5946;51.770;8.548;2023-04-09T08:44:26;36.17;;;26.60;;
11777;SDS011;5946;51.770;8.548;2023-04-09T08:46:53;39.00;;;23.93;;
11777;SDS011;5946;51.770;8.548;2023-04-09T08:49:19;34.83;;;24.30;;
11777;SDS011;5946;51.770;8.548;2023-04-09T08:51:46;31.33;;;22.87;;
11777;SDS011;5946;51.770;8.548;2023-04-09T08:54:13;34.27;;;24.07;;
11777;SDS011;5946;51.770;8.548;2023-04-09T08:56:40;35.70;;;24.10;;
11777;SDS011;5946;51.770;8.548;2023-04-09T08:59:06;32.63;;;23.63;;
11777;SDS011;5946;51.770;8.548;2023-04-09T09:01:32;32.50;;;23.53;;
11777;SDS011;5946;51.770;8.548;2023-04-09T09:04:05;34.67;;;24.13;;
11777;SDS011;5946;51.770;8.548;2023-04-09T09:06:34;33.20;;;23.97;;
11777;SDS011;5946;51.770;8.548;2023-04-09T09:09:01;30.83;;;22.07;;
11777;SDS011;5946;51.770;8.548;2023-04-09T09:11:27;32.37;;;22.83;;
11777;SDS011;5946;51.770;8.548;2023-04-09T09:14:01;30.37;;;22.13;;
11777;SDS011;5946;51.770;8.548;2023-04-09T09:16:27;32.53;;;24.07;;
11777;SDS011;5946;51.770;8.548;2023-04-09T09:18:53;28.20;;;20.07;;
11777;SDS011;5946;51.770;8.548;2023-04-09T09:21:20;30.20;;;21.20;;
11777;SDS011;5946;51.770;8.548;2023-04-09T09:23:46;28.53;;;20.63;;
11777;SDS011;5946;51.770;8.548;2023-04-09T09:26:15;25.90;;;19.17;;
11777;SDS011;5946;51.770;8.548;2023-04-09T09:28:42;32.00;;;20.27;;
11777;SDS011;5946;51.770;8.548;2023-04-09T09:31:08;29.37;;;21.63;;
11777;SDS011;5946;51.770;8.548;2023-04-09T09:33:34;29.73;;;22.07;;
11777;SDS011;5946;51.770;8.548;2023-04-09T09:36:01;30.93;;;23.57;;
11777;SDS011;5946;51.770;8.548;2023-04-09T09:38:30;28.07;;;21.73;;
11777;SDS011;5946;51.770;8.548;2023-04-09T09:40:56;34.93;;;24.63;;
11777;SDS011;5946;51.770;8.548;2023-04-09T09:43:22;36.93;;;27.00;;
11777;SDS011;5946;51.770;8.548;2023-04-09T09:45:48;26.57;;;20.43;;
11777;SDS011;5946;51.770;8.548;2023-04-09T09:48:14;25.10;;;19.53;;
11777;SDS011;5946;51.770;8.548;2023-04-09T09:50:41;25.73;;;19.40;;
11777;SDS011;5946;51.770;8.548;2023-04-09T09:53:07;35.20;;;25.20;;
11777;SDS011;5946;51.770;8.548;2023-04-09T09:55:36;23.97;;;18.70;;
11777;SDS011;5946;51.770;8.548;2023-04-09T09:58:05;27.70;;;22.17;;
11777;SDS011;5946;51.770;8.548;2023-04-09T10:00:36;23.17;;;17.23;;
11777;SDS011;5946;51.770;8.548;2023-04-09T10:03:05;24.87;;;18.17;;
11777;SDS011;5946;51.770;8.548;2023-04-09T10:05:32;24.93;;;18.47;;
11777;SDS011;5946;51.770;8.548;2023-04-09T10:08:00;20.30;;;16.40;;
11777;SDS011;5946;51.770;8.548;2023-04-09T10:10:28;17.77;;;15.00;;
11777;SDS011;5946;51.770;8.548;2023-04-09T10:12:55;15.30;;;12.77;;
11777;SDS011;5946;51.770;8.548;2023-04-09T10:15:22;13.57;;;10.73;;
11777;SDS011;5946;51.770;8.548;2023-04-09T10:17:48;27.60;;;20.43;;
11777;SDS011;5946;51.770;8.548;2023-04-09T10:20:15;14.80;;;12.50;;
11777;SDS011;5946;51.770;8.548;2023-04-09T10:22:43;18.13;;;13.90;;
11777;SDS011;5946;51.770;8.548;2023-04-09T10:25:11;17.37;;;14.27;;
11777;SDS011;5946;51.770;8.548;2023-04-09T10:27:37;18.30;;;14.03;;
11777;SDS011;5946;51.770;8.548;2023-04-09T10:30:03;17.70;;;13.27;;
11777;SDS011;5946;51.770;8.548;2023-04-09T10:32:33;19.63;;;15.70;;
11777;SDS011;5946;51.770;8.548;2023-04-09T10:35:00;14.40;;;11.77;;
11777;SDS011;5946;51.770;8.548;2023-04-09T10:37:27;13.43;;;11.67;;
11777;SDS011;5946;51.770;8.548;2023-04-09T10:39:54;15.70;;;12.97;;
11777;SDS011;5946;51.770;8.548;2023-04-09T10:42:38;16.17;;;12.50;;
11777;SDS011;5946;51.770;8.548;2023-04-09T10:45:09;14.50;;;11.97;;
11777;SDS011;5946;51.770;8.548;2023-04-09T10:47:36;15.60;;;12.30;;
11777;SDS011;5946;51.770;8.548;2023-04-09T10:52:41;13.73;;;11.40;;
11777;SDS011;5946;51.770;8.548;2023-04-09T10:55:08;11.03;;;9.77;;
11777;SDS011;5946;51.770;8.548;2023-04-09T10:57:34;12.77;;;10.50;;
11777;SDS011;5946;51.770;8.548;2023-04-09T11:00:00;12.63;;;10.20;;
11777;SDS011;5946;51.770;8.548;2023-04-09T11:10:19;13.90;;;10.93;;
11777;SDS011;5946;51.770;8.548;2023-04-09T11:12:46;12.70;;;10.60;;
11777;SDS011;5946;51.770;8.548;2023-04-09T11:15:15;12.67;;;10.43;;
11777;SDS011;5946;51.770;8.548;2023-04-09T11:17:42;11.93;;;10.50;;
11777;SDS011;5946;51.770;8.548;2023-04-09T11:20:09;13.50;;;10.40;;
11777;SDS011;5946;51.770;8.548;2023-04-09T11:22:35;14.40;;;11.57;;
11777;SDS011;5946;51.770;8.548;2023-04-09T11:25:01;12.40;;;10.17;;
11777;SDS011;5946;51.770;8.548;2023-04-09T11:27:27;11.23;;;9.63;;
11777;SDS011;5946;51.770;8.548;2023-04-09T11:29:56;19.93;;;15.37;;
11777;SDS011;5946;51.770;8.548;2023-04-09T11:32:27;12.27;;;10.27;;
11777;SDS011;5946;51.770;8.548;2023-04-09T11:34:53;11.70;;;10.47;;
11777;SDS011;5946;51.770;8.548;2023-04-09T11:37:21;13.03;;;11.10;;
11777;SDS011;5946;51.770;8.548;2023-04-09T11:39:46;14.73;;;13.20;;
11777;SDS011;5946;51.770;8.548;2023-04-09T11:42:13;14.63;;;13.03;;
11777;SDS011;5946;51.770;8.548;2023-04-09T11:44:39;12.70;;;11.40;;
11777;SDS011;5946;51.770;8.548;2023-04-09T11:47:05;11.57;;;10.37;;
11777;SDS011;5946;51.770;8.548;2023-04-09T11:49:32;11.47;;;10.23;;
11777;SDS011;5946;51.770;8.548;2023-04-09T11:51:58;13.70;;;11.40;;
11777;SDS011;5946;51.770;8.548;2023-04-09T11:54:30;12.00;;;10.67;;
11777;SDS011;5946;51.770;8.548;2023-04-09T11:56:57;11.20;;;10.00;;
11777;SDS011;5946;51.770;8.548;2023-04-09T11:59:23;11.93;;;10.43;;
11777;SDS011;5946;51.770;8.548;2023-04-09T12:01:50;12.17;;;10.10;;
11777;SDS011;5946;51.770;8.548;2023-04-09T12:04:19;12.27;;;10.17;;
11777;SDS011;5946;51.770;8.548;2023-04-09T12:06:45;10.83;;;9.30;;
11777;SDS011;5946;51.770;8.548;2023-04-09T12:09:12;11.43;;;10.23;;
11777;SDS011;5946;51.770;8.548;2023-04-09T12:11:38;12.00;;;10.20;;
11777;SDS011;5946;51.770;8.548;2023-04-09T12:14:06;11.73;;;9.00;;
11777;SDS011;5946;51.770;8.548;2023-04-09T12:16:33;10.87;;;9.43;;
11777;SDS011;5946;51.770;8.548;2023-04-09T12:19:03;10.33;;;9.17;;
11777;SDS011;5946;51.770;8.548;2023-04-09T12:24:12;11.17;;;9.73;;
11777;SDS011;5946;51.770;8.548;2023-04-09T12:26:38;13.53;;;12.13;;
11777;SDS011;5946;51.770;8.548;2023-04-09T12:29:04;15.00;;;13.40;;
11777;SDS011;5946;51.770;8.548;2023-04-09T12:31:30;11.37;;;10.17;;
11777;SDS011;5946;51.770;8.548;2023-04-09T12:33:56;10.37;;;9.17;;
11777;SDS011;5946;51.770;8.548;2023-04-09T12:36:21;14.10;;;12.60;;
11777;SDS011;5946;51.770;8.548;2023-04-09T12:38:48;11.43;;;9.33;;
11777;SDS011;5946;51.770;8.548;2023-04-09T12:41:15;11.10;;;9.90;;
11777;SDS011;5946;51.770;8.548;2023-04-09T12:43:41;12.60;;;10.23;;
11777;SDS011;5946;51.770;8.548;2023-04-09T12:46:11;21.27;;;18.33;;
11777;SDS011;5946;51.770;8.548;2023-04-09T12:48:37;11.53;;;9.90;;
11777;SDS011;5946;51.770;8.548;2023-04-09T12:51:03;14.20;;;12.37;;
11777;SDS011;5946;51.770;8.548;2023-04-09T12:53:30;11.30;;;10.07;;
11777;SDS011;5946;51.770;8.548;2023-04-09T12:55:56;11.27;;;10.07;;
11777;SDS011;5946;51.770;8.548;2023-04-09T12:58:22;27.10;;;23.67;;
11777;SDS011;5946;51.770;8.548;2023-04-09T13:00:48;20.90;;;16.47;;
11777;SDS011;5946;51.770;8.548;2023-04-09T13:03:14;15.00;;;12.23;;
11777;SDS011;5946;51.770;8.548;2023-04-09T13:05:40;13.63;;;11.67;;
11777;SDS011;5946;51.770;8.548;2023-04-09T13:08:06;12.80;;;10.90;;
11777;SDS011;5946;51.770;8.548;2023-04-09T13:10:32;13.20;;;11.10;;
11777;SDS011;5946;51.770;8.548;2023-04-09T13:12:58;12.07;;;10.07;;
11777;SDS011;5946;51.770;8.548;2023-04-09T13:15:24;13.67;;;10.87;;
11777;SDS011;5946;51.770;8.548;2023-04-09T13:17:51;12.77;;;10.93;;
11777;SDS011;5946;51.770;8.548;2023-04-09T13:20:17;11.80;;;10.10;;
11777;SDS011;5946;51.770;8.548;2023-04-09T13:22:43;11.73;;;10.53;;
11777;SDS011;5946;51.770;8.548;2023-04-09T13:25:15;13.67;;;10.70;;
11777;SDS011;5946;51.770;8.548;2023-04-09T13:27:41;12.93;;;11.23;;
11777;SDS011;5946;51.770;8.548;2023-04-09T13:30:07;13.13;;;10.77;;
11777;SDS011;5946;51.770;8.548;2023-04-09T13:32:33;12.73;;;11.07;;
11777;SDS011;5946;51.770;8.548;2023-04-09T13:35:00;13.03;;;11.27;;
11777;SDS011;5946;51.770;8.548;2023-04-09T13:37:26;14.73;;;11.83;;
11777;SDS011;5946;51.770;8.548;2023-04-09T13:39:52;13.13;;;11.33;;
11777;SDS011;5946;51.770;8.548;2023-04-09T13:42:18;16.07;;;12.17;;
11777;SDS011;5946;51.770;8.548;2023-04-09T13:44:44;16.50;;;13.50;;
11777;SDS011;5946;51.770;8.548;2023-04-09T13:47:13;14.90;;;12.77;;
11777;SDS011;5946;51.770;8.548;2023-04-09T13:49:40;15.70;;;13.03;;
11777;SDS011;5946;51.770;8.548;2023-04-09T13:52:06;13.30;;;11.53;;
11777;SDS011;5946;51.770;8.548;2023-04-09T13:54:32;15.43;;;12.17;;
11777;SDS011;5946;51.770;8.548;2023-04-09T13:56:58;14.60;;;12.17;;
11777;SDS011;5946;51.770;8.548;2023-04-09T13:59:24;16.53;;;12.97;;
11777;SDS011;5946;51.770;8.548;2023-04-09T14:01:50;15.97;;;12.10;;
11777;SDS011;5946;51.770;8.548;2023-04-09T14:04:16;15.27;;;12.57;;
11777;SDS011;5946;51.770;8.548;2023-04-09T14:06:43;16.17;;;13.17;;
11777;SDS011;5946;51.770;8.548;2023-04-09T14:09:09;15.67;;;13.30;;
11777;SDS011;5946;51.770;8.548;2023-04-09T14:11:35;15.33;;;12.53;;
11777;SDS011;5946;51.770;8.548;2023-04-09T14:14:01;16.60;;;13.17;;
11777;SDS011;5946;51.770;8.548;2023-04-09T14:16:27;16.90;;;13.23;;
11777;SDS011;5946;51.770;8.548;2023-04-09T14:18:54;15.80;;;12.37;;
11777;SDS011;5946;51.770;8.548;2023-04-09T14:21:20;14.93;;;12.47;;
11777;SDS011;5946;51.770;8.548;2023-04-09T14:23:46;14.13;;;11.63;;
11777;SDS011;5946;51.770;8.548;2023-04-09T14:26:12;13.53;;;11.10;;
11777;SDS011;5946;51.770;8.548;2023-04-09T14:28:39;13.90;;;11.90;;
11777;SDS011;5946;51.770;8.548;2023-04-09T14:31:05;15.40;;;12.20;;
11777;SDS011;5946;51.770;8.548;2023-04-09T14:33:31;15.07;;;12.53;;
11777;SDS011;5946;51.770;8.548;2023-04-09T14:35:57;15.13;;;12.23;;
11777;SDS011;5946;51.770;8.548;2023-04-09T14:38:23;14.53;;;11.97;;
11777;SDS011;5946;51.770;8.548;2023-04-09T14:40:49;15.60;;;12.93;;
11777;SDS011;5946;51.770;8.548;2023-04-09T14:43:15;15.53;;;11.77;;
11777;SDS011;5946;51.770;8.548;2023-04-09T14:45:41;15.43;;;12.87;;
11777;SDS011;5946;51.770;8.548;2023-04-09T14:48:07;14.03;;;11.30;;
11777;SDS011;5946;51.770;8.548;2023-04-09T14:50:33;12.73;;;11.23;;
11777;SDS011;5946;51.770;8.548;2023-04-09T14:53:00;15.20;;;12.23;;